地図

経路データ

SID SEASON NUMBER BASIN SUBBASIN NAME ISO_TIME NATURE LAT LON WMO_WIND WMO_PRES WMO_AGENCY TRACK_TYPE DIST2LAND LANDFALL IFLAG USA_AGENCY USA_ATCF_ID USA_LAT USA_LON USA_RECORD USA_STATUS USA_WIND USA_PRES USA_SSHS USA_R34_NE USA_R34_SE USA_R34_SW USA_R34_NW USA_R50_NE USA_R50_SE USA_R50_SW USA_R50_NW USA_R64_NE USA_R64_SE USA_R64_SW USA_R64_NW USA_POCI USA_ROCI USA_RMW USA_EYE TOKYO_LAT TOKYO_LON TOKYO_GRADE TOKYO_WIND TOKYO_PRES TOKYO_R50_DIR TOKYO_R50_LONG TOKYO_R50_SHORT TOKYO_R30_DIR TOKYO_R30_LONG TOKYO_R30_SHORT TOKYO_LAND CMA_LAT CMA_LON CMA_CAT CMA_WIND CMA_PRES HKO_LAT HKO_LON HKO_CAT HKO_WIND HKO_PRES NEWDELHI_LAT NEWDELHI_LON NEWDELHI_GRADE NEWDELHI_WIND NEWDELHI_PRES NEWDELHI_CI NEWDELHI_DP NEWDELHI_POCI REUNION_LAT REUNION_LON REUNION_TYPE REUNION_WIND REUNION_PRES REUNION_TNUM REUNION_CI REUNION_RMW REUNION_R34_NE REUNION_R34_SE REUNION_R34_SW REUNION_R34_NW REUNION_R50_NE REUNION_R50_SE REUNION_R50_SW REUNION_R50_NW REUNION_R64_NE REUNION_R64_SE REUNION_R64_SW REUNION_R64_NW BOM_LAT BOM_LON BOM_TYPE BOM_WIND BOM_PRES BOM_TNUM BOM_CI BOM_RMW BOM_R34_NE BOM_R34_SE BOM_R34_SW BOM_R34_NW BOM_R50_NE BOM_R50_SE BOM_R50_SW BOM_R50_NW BOM_R64_NE BOM_R64_SE BOM_R64_SW BOM_R64_NW BOM_ROCI BOM_POCI BOM_EYE BOM_POS_METHOD BOM_PRES_METHOD NADI_LAT NADI_LON NADI_CAT NADI_WIND NADI_PRES WELLINGTON_LAT WELLINGTON_LON WELLINGTON_WIND WELLINGTON_PRES DS824_LAT DS824_LON DS824_STAGE DS824_WIND DS824_PRES TD9636_LAT TD9636_LON TD9636_STAGE TD9636_WIND TD9636_PRES TD9635_LAT TD9635_LON TD9635_WIND TD9635_PRES TD9635_ROCI NEUMANN_LAT NEUMANN_LON NEUMANN_CLASS NEUMANN_WIND NEUMANN_PRES MLC_LAT MLC_LON MLC_CLASS MLC_WIND MLC_PRES USA_GUST BOM_GUST BOM_GUST_PER REUNION_GUST REUNION_GUST_PER USA_SEAHGT USA_SEARAD_NE USA_SEARAD_SE USA_SEARAD_SW USA_SEARAD_NW STORM_SPEED STORM_DIR
1954213N24146 1954 38 WP MM NOT_NAMED 1954-08-01 00:00:00 TS 23.7000 145.800 main 1373 1340 __O___________ -1 23.7000 145.800 0 1008 11 280
1954213N24146 1954 38 WP MM NOT_NAMED 1954-08-01 03:00:00 TS 23.7978 145.213 main 1340 1308 __P___________ -1 23.7978 145.213 0 1008 11 280
1954213N24146 1954 38 WP MM NOT_NAMED 1954-08-01 06:00:00 TS 23.9000 144.600 main 1308 1279 __O___________ -1 23.9000 144.600 0 1008 12 280
1954213N24146 1954 38 WP MM NOT_NAMED 1954-08-01 09:00:00 TS 24.0074 143.950 main 1279 1249 __P___________ -1 24.0074 143.950 0 1008 12 280
1954213N24146 1954 38 WP MM NOT_NAMED 1954-08-01 12:00:00 TS 24.1000 143.300 main 1249 1230 __O___________ -1 24.1000 143.300 0 1008 12 277
1954213N24146 1954 38 WP MM NOT_NAMED 1954-08-01 15:00:00 TS 24.1497 142.692 main 1230 1195 __P___________ -1 24.1497 142.692 0 1008 11 275
1954213N24146 1954 38 WP MM NOT_NAMED 1954-08-01 18:00:00 TS 24.2000 142.100 main 1195 1152 __O___________ -1 24.2000 142.100 0 1008 12 276
1954213N24146 1954 38 WP MM NOT_NAMED 1954-08-01 21:00:00 TS 24.2780 141.350 main 1152 1119 __P___________ -1 24.2780 141.350 0 1008 11 280
1954213N24146 1954 38 WP MM NOT_NAMED 1954-08-02 00:00:00 TS 24.4000 140.900 main 1119 1108 __O___________ -1 24.4000 140.900 0 1008 3 335
1954213N24146 1954 38 WP MM NOT_NAMED 1954-08-02 03:00:00 TS 24.5853 141.194 main 1113 1112 __P___________ -1 24.5853 141.194 0 1008 8 61
1954213N24146 1954 38 WP MM NOT_NAMED 1954-08-02 06:00:00 TS 24.8000 141.700 main 1117 1107 __O___________ -1 24.8000 141.700 0 1008 8 56
1954213N24146 1954 38 WP MM NOT_NAMED 1954-08-02 09:00:00 TS 24.9998 141.883 main 1107 1088 __P___________ -1 24.9998 141.883 0 1008 4 24
1954213N24146 1954 38 WP MM NOT_NAMED 1954-08-02 12:00:00 TS 25.2000 141.900 main 1088 1064 __O___________ -1 25.2000 141.900 0 1008 4 348
1954213N24146 1954 38 WP MM NOT_NAMED 1954-08-02 15:00:00 TS 25.4075 141.788 main 1064 1034 __P___________ -1 25.4075 141.788 0 1008 5 326
1954213N24146 1954 38 WP MM NOT_NAMED 1954-08-02 18:00:00 TS 25.6000 141.600 main 1034 1020 __O___________ -1 25.6000 141.600 0 1008 5 317
1954213N24146 1954 38 WP MM NOT_NAMED 1954-08-02 21:00:00 TS 25.7425 141.442 main 1015 990 __P___________ -1 25.7425 141.442 0 1008 4 318
1954213N24146 1954 38 WP MM NOT_NAMED 1954-08-03 00:00:00 TS 25.9000 141.300 main 990 966 __O___________ -1 25.9000 141.300 0 1008 5 330
1954213N24146 1954 38 WP MM NOT_NAMED 1954-08-03 03:00:00 TS 26.1350 141.192 main 966 932 __P___________ -1 26.1350 141.192 0 1007 5 340
1954213N24146 1954 38 WP MM NOT_NAMED 1954-08-03 06:00:00 TS 26.4000 141.100 main 932 908 __O___________ -1 26.4000 141.100 0 1006 6 342
1954213N24146 1954 38 WP MM NOT_NAMED 1954-08-03 09:00:00 TS 26.6575 141.007 main 899 874 __P___________ -1 26.6575 141.007 0 1006 5 340
1954213N24146 1954 38 WP MM NOT_NAMED 1954-08-03 12:00:00 TS 26.9000 140.900 main 874 850 __O___________ -1 26.9000 140.900 0 1006 5 337
1954213N24146 1954 38 WP MM NOT_NAMED 1954-08-03 15:00:00 TS 27.1224 140.787 main 850 821 __P___________ -1 27.1224 140.787 0 1005 5 326
1954213N24146 1954 38 WP MM NOT_NAMED 1954-08-03 18:00:00 TS 27.3000 140.600 main 821 795 __O___________ -1 27.3000 140.600 0 1005 6 304
1954213N24146 1954 38 WP MM NOT_NAMED 1954-08-03 21:00:00 TS 27.4376 140.273 main 795 766 __P___________ -1 27.4376 140.273 0 1005 7 288
1954213N24146 1954 38 WP MM NOT_NAMED 1954-08-04 00:00:00 TS 27.5000 139.900 main 766 751 __O___________ -1 27.5000 139.900 0 1005 6 274
1954213N24146 1954 38 WP MM NOT_NAMED 1954-08-04 03:00:00 TS 27.4798 139.600 main 751 747 __P___________ -1 27.4798 139.600 0 1004 5 259
1954213N24146 1954 38 WP MM NOT_NAMED 1954-08-04 06:00:00 TS 27.4000 139.300 main 748 740 __O___________ -1 27.4000 139.300 0 1004 6 253
1954213N24146 1954 38 WP MM NOT_NAMED 1954-08-04 09:00:00 TS 27.3075 138.950 main 742 738 __P___________ -1 27.3075 138.950 0 1004 7 252
1954213N24146 1954 38 WP MM NOT_NAMED 1954-08-04 12:00:00 TS 27.2000 138.600 main 741 738 __O___________ -1 27.2000 138.600 0 1004 6 250
1954213N24146 1954 38 WP MM NOT_NAMED 1954-08-04 15:00:00 TS 27.0998 138.300 main 742 739 __P___________ -1 27.0998 138.300 0 1004 6 249
1954213N24146 1954 38 WP MM NOT_NAMED 1954-08-04 18:00:00 TS 27.0000 138.000 main 744 742 __O___________ -1 27.0000 138.000 0 1004 6 251
1954213N24146 1954 38 WP MM NOT_NAMED 1954-08-04 21:00:00 TS 26.9000 137.658 main 747 743 __P___________ -1 26.9000 137.658 0 1003 7 252
1954213N24146 1954 38 WP MM NOT_NAMED 1954-08-05 00:00:00 TS 26.8000 137.300 main 750 747 __O___________ -1 26.8000 137.300 1 23 1002 7 252
1954213N24146 1954 38 WP MM NOT_NAMED 1954-08-05 03:00:00 TS 26.6924 136.950 main 755 736 __P___________ -1 26.6924 136.950 1 23 1002 7 252
1954213N24146 1954 38 WP MM NOT_NAMED 1954-08-05 06:00:00 TS 26.6000 136.600 main 736 716 __O___________ -1 26.6000 136.600 1 23 1002 6 257
1954213N24146 1954 38 WP MM NOT_NAMED 1954-08-05 09:00:00 TS 26.5499 136.250 main 724 700 __P___________ -1 26.5499 136.250 1 23 1002 6 261
1954213N24146 1954 38 WP MM NOT_NAMED 1954-08-05 12:00:00 TS 26.5000 135.900 main 700 688 __O___________ -1 26.5000 135.900 1 23 1002 6 256
1954213N24146 1954 38 WP MM NOT_NAMED 1954-08-05 15:00:00 TS 26.3999 135.557 main 691 678 __P___________ -1 26.3999 135.557 1 1002 7 252
1954213N24146 1954 38 WP MM NOT_NAMED 1954-08-05 18:00:00 TS 26.3000 135.200 main 678 668 __O___________ -1 26.3000 135.200 0 1002 7 256
1954213N24146 1954 38 WP MM NOT_NAMED 1954-08-05 21:00:00 TS 26.2348 134.823 main 668 645 __P___________ -1 26.2348 134.823 0 1002 7 262
1954213N24146 1954 38 WP MM NOT_NAMED 1954-08-06 00:00:00 TS 26.2000 134.400 main 645 624 __O___________ -1 26.2000 134.400 0 1002 8 266
1954213N24146 1954 38 WP MM NOT_NAMED 1954-08-06 03:00:00 TS 26.1846 133.945 main 619 596 __P___________ -1 26.1846 133.945 0 1002 9 270
1954213N24146 1954 38 WP MM NOT_NAMED 1954-08-06 06:00:00 TS 26.2000 133.400 main 596 573 __O___________ -1 26.2000 133.400 0 1002 11 271
1954213N24146 1954 38 WP MM NOT_NAMED 1954-08-06 09:00:00 TS 26.2126 132.730 main 570 539 __P___________ -1 26.2126 132.730 0 1002 13 275
1954213N24146 1954 38 WP MM NOT_NAMED 1954-08-06 12:00:00 TS 26.3000 132.000 main 539 505 __O___________ -1 26.3000 132.000 0 1002 13 284
1954213N24146 1954 38 WP MM NOT_NAMED 1954-08-06 15:00:00 TS 26.5275 131.278 main 505 468 __P___________ -1 26.5275 131.278 0 1002 13 292
1954213N24146 1954 38 WP MM NOT_NAMED 1954-08-06 18:00:00 TS 26.8000 130.600 main 468 449 __O___________ -1 26.8000 130.600 0 1002 13 294
1954213N24146 1954 38 WP MM NOT_NAMED 1954-08-06 21:00:00 TS 27.0448 129.998 main 451 435 __P___________ -1 27.0448 129.998 0 1002 11 292
1954213N24146 1954 38 WP MM NOT_NAMED 1954-08-07 00:00:00 TS 27.2000 129.500 main 439 439 __O___________ -1 27.2000 129.500 0 1002 8 280
1954213N24146 1954 38 WP MM NOT_NAMED 1954-08-07 03:00:00 TS 27.1871 129.127 main 451 451 __P___________ -1 27.1871 129.127 0 1002 6 261
1954213N24146 1954 38 WP MM NOT_NAMED 1954-08-07 06:00:00 TS 27.1000 128.800 main 472 472 __O___________ -1 27.1000 128.800 0 1002 7 259
1954213N24146 1954 38 WP MM NOT_NAMED 1954-08-07 09:00:00 TS 27.0650 128.400 main 489 489 __P___________ -1 27.0650 128.400 0 1002 7 262
1954213N24146 1954 38 WP MM NOT_NAMED 1954-08-07 12:00:00 TS 27.0000 128.000 main 515 515 __O___________ -1 27.0000 128.000 0 1002 7 253
1954213N24146 1954 38 WP MM NOT_NAMED 1954-08-07 15:00:00 TS 26.8499 127.635 main 552 552 __P___________ -1 26.8499 127.635 0 1002 7 244
1954213N24146 1954 38 WP MM NOT_NAMED 1954-08-07 18:00:00 TS 26.7000 127.300 main 562 531 __O___________ -1 26.7000 127.300 0 1002 6 249
1954213N24146 1954 38 WP MM NOT_NAMED 1954-08-07 21:00:00 TS 26.6273 127.000 main 531 502 __P___________ -1 26.6273 127.000 0 1002 5 259
1954213N24146 1954 38 WP MM NOT_NAMED 1954-08-08 00:00:00 TS 26.6000 126.700 main 502 475 __O___________ -1 26.6000 126.700 0 1002 6 264
1954213N24146 1954 38 WP MM NOT_NAMED 1954-08-08 03:00:00 TS 26.5700 126.350 main 465 438 __P___________ -1 26.5700 126.350 0 1002 6 270
1954213N24146 1954 38 WP MM NOT_NAMED 1954-08-08 06:00:00 TS 26.6000 126.000 main 438 415 __O___________ -1 26.6000 126.000 0 1002 6 283
1954213N24146 1954 38 WP MM NOT_NAMED 1954-08-08 09:00:00 TS 26.7124 125.685 main 415 400 __P___________ -1 26.7124 125.685 0 1002 6 299
1954213N24146 1954 38 WP MM NOT_NAMED 1954-08-08 12:00:00 TS 26.9000 125.400 main 400 378 __O___________ -1 26.9000 125.400 0 1002 6 312
1954213N24146 1954 38 WP MM NOT_NAMED 1954-08-08 15:00:00 TS 27.1349 125.150 main 369 339 __P___________ -1 27.1349 125.150 0 1002 7 318
1954213N24146 1954 38 WP MM NOT_NAMED 1954-08-08 18:00:00 TS 27.4000 124.900 main 339 304 __O___________ -1 27.4000 124.900 0 1002 7 317
1954213N24146 1954 38 WP MM NOT_NAMED 1954-08-08 21:00:00 TS 27.6500 124.607 main 304 267 __P___________ -1 27.6500 124.607 0 1002 7 313
1954213N24146 1954 38 WP MM NOT_NAMED 1954-08-09 00:00:00 TS 27.9000 124.300 main 267 230 __O___________ -1 27.9000 124.300 0 1002 7 312
1954213N24146 1954 38 WP MM NOT_NAMED 1954-08-09 03:00:00 TS 28.1426 123.977 main 230 188 __P___________ -1 28.1426 123.977 0 1002 7 313
1954213N24146 1954 38 WP MM NOT_NAMED 1954-08-09 06:00:00 TS 28.4000 123.700 main 188 156 __O___________ -1 28.4000 123.700 0 1002 7 324
1954213N24146 1954 38 WP MM NOT_NAMED 1954-08-09 09:00:00 TS 28.6899 123.520 main 156 137 __P___________ -1 28.6899 123.520 0 1002 7 336
1954213N24146 1954 38 WP MM NOT_NAMED 1954-08-09 12:00:00 TS 29.0000 123.400 main 137 __O___________ -1 29.0000 123.400 0 1003 7 342

デジタル台風データ・検索

IBTrACS Databaseについて

本データベースは、米国NOAAが公開する1842年以降の世界の熱帯低気圧のベストトラックデータアーカイブInternational Best Track Archive for Climate Stewardship (IBTrACS)を、ウェブで閲覧しやすい形式に変換したものです。

最終更新日:2021-10-08